Greendale, WI

6:31 AM CDT on March 30, 2017 (GMT -0500)
M Section | | Change Station

Elev 823 ft 42.95 °N, 87.99 °W | Updated 17 seconds ago

Rain
Rain
34.8 °F
Feels Like 30 °F
N
5.8
Wind Variable Wind from East

Today
High -- | Low -- °F
--% Chance of Precip.
Yesterday
High -- | Low -- °F
Precip. -- in
Pressure 29.95 in
Visibility 7.0 miles
Clouds Mostly Cloudy 1100 ft
Overcast 2300 ft
Windchill 30 °F
Dew Point 34 °F
Humidity 99%
Rainfall 0.49 in
Snow Depth Not available.
6:37 AM 7:16 PM
Waxing Crescent, 8% visible
METAR KMKE 301052Z 07018KT 7SM -RA BKN011 OVC023 03/01 A2993 RMK AO2 SLP141 P0009 T00330011
Pressure 29.95 in
Visibility 7.0 miles
Clouds Mostly Cloudy 1100 ft
Overcast 2300 ft
Windchill 30 °F
Dew Point 34 °F
Humidity 99%
Rainfall 0.49 in
Snow Depth Not available.
6:37 AM 7:16 PM
Waxing Crescent, 8% visible
METAR KMKE 301052Z 07018KT 7SM -RA BKN011 OVC023 03/01 A2993 RMK AO2 SLP141 P0009 T00330011

Get Severe Weather Alerts

Thanks for signing up!

Be on the lookout for a verification email in your inbox.

You'll start receiving the daily forecast at 8 AM.

×

10-Day Weather Forecast

Almanac

Astronomy

Mar. 30, 2017 Rise Set
Actual Time
Civil Twilight
Nautical Twilight
Astronomical Twilight
Moon
Length of Visible Light
Length of Day
Tomorrow will be .
, % of the Moon is Illuminated

Today's Extremes

State Highs State Lows

Community

WunderPhotos

Upload Photos

1,962,540 photos uploaded!

WunderBlog® & News

Nearby

Air Quality

  Air Quality AQ Index Pollutant
Not available.

Snow Depth

Station Depth Elevation

Earthquake Activity

City Distance Mag. Time & Date
Minimum magnitude displayed is 2.5.

Earthquake Activity

City Distance Mag. Time & Date
Minimum magnitude displayed is 2.5.

Coastal Water Temperatures

Place Temperature

Stations

Nearby Weather Stations

Station Location Temp. Windchill Dew Point Humidity Wind Precip. Elev Updated Type
                   

Watches & Warnings

There are currently no watches in effect.